sensor_id;sensor_type;location;lat;lon;timestamp;P1;durP1;ratioP1;P2;durP2;ratioP2
1086;SDS011;532;49.436;11.100;2022-07-23T00:00:02;10.40;;;6.40;;
1086;SDS011;532;49.436;11.100;2022-07-23T00:02:31;9.70;;;6.65;;
1086;SDS011;532;49.436;11.100;2022-07-23T00:05:00;10.90;;;6.73;;
1086;SDS011;532;49.436;11.100;2022-07-23T00:07:30;10.38;;;6.25;;
1086;SDS011;532;49.436;11.100;2022-07-23T00:09:58;8.98;;;6.60;;
1086;SDS011;532;49.436;11.100;2022-07-23T00:12:26;10.88;;;6.57;;
1086;SDS011;532;49.436;11.100;2022-07-23T00:14:55;9.02;;;6.70;;
1086;SDS011;532;49.436;11.100;2022-07-23T00:17:24;14.27;;;7.22;;
1086;SDS011;532;49.436;11.100;2022-07-23T00:19:52;11.05;;;6.82;;
1086;SDS011;532;49.436;11.100;2022-07-23T00:22:21;10.18;;;6.32;;
1086;SDS011;532;49.436;11.100;2022-07-23T00:28:00;11.27;;;7.57;;
1086;SDS011;532;49.436;11.100;2022-07-23T00:30:30;10.63;;;6.53;;
1086;SDS011;532;49.436;11.100;2022-07-23T00:33:25;11.38;;;7.15;;
1086;SDS011;532;49.436;11.100;2022-07-23T00:35:55;10.65;;;7.18;;
1086;SDS011;532;49.436;11.100;2022-07-23T00:38:23;10.17;;;6.97;;
1086;SDS011;532;49.436;11.100;2022-07-23T00:40:53;10.10;;;6.60;;
1086;SDS011;532;49.436;11.100;2022-07-23T00:43:24;13.35;;;7.05;;
1086;SDS011;532;49.436;11.100;2022-07-23T00:45:53;10.50;;;7.18;;
1086;SDS011;532;49.436;11.100;2022-07-23T00:48:21;11.00;;;6.33;;
1086;SDS011;532;49.436;11.100;2022-07-23T00:50:49;11.50;;;6.88;;
1086;SDS011;532;49.436;11.100;2022-07-23T00:53:17;12.02;;;6.85;;
1086;SDS011;532;49.436;11.100;2022-07-23T00:55:48;11.13;;;6.35;;
1086;SDS011;532;49.436;11.100;2022-07-23T00:58:17;9.43;;;6.30;;
1086;SDS011;532;49.436;11.100;2022-07-23T01:00:46;11.13;;;6.63;;
1086;SDS011;532;49.436;11.100;2022-07-23T01:03:15;9.35;;;6.53;;
1086;SDS011;532;49.436;11.100;2022-07-23T01:05:43;13.07;;;6.80;;
1086;SDS011;532;49.436;11.100;2022-07-23T01:08:12;10.40;;;6.78;;
1086;SDS011;532;49.436;11.100;2022-07-23T01:10:40;10.93;;;7.33;;
1086;SDS011;532;49.436;11.100;2022-07-23T01:13:09;12.05;;;7.15;;
1086;SDS011;532;49.436;11.100;2022-07-23T01:15:39;12.40;;;6.75;;
1086;SDS011;532;49.436;11.100;2022-07-23T01:18:08;10.60;;;6.82;;
1086;SDS011;532;49.436;11.100;2022-07-23T01:20:37;10.88;;;7.20;;
1086;SDS011;532;49.436;11.100;2022-07-23T01:26:07;10.23;;;7.25;;
1086;SDS011;532;49.436;11.100;2022-07-23T01:28:37;12.38;;;7.70;;
1086;SDS011;532;49.436;11.100;2022-07-23T01:31:08;11.32;;;7.93;;
1086;SDS011;532;49.436;11.100;2022-07-23T01:33:36;12.25;;;7.20;;
1086;SDS011;532;49.436;11.100;2022-07-23T01:36:05;11.05;;;7.32;;
1086;SDS011;532;49.436;11.100;2022-07-23T01:38:36;11.00;;;6.85;;
1086;SDS011;532;49.436;11.100;2022-07-23T01:41:07;9.88;;;7.32;;
1086;SDS011;532;49.436;11.100;2022-07-23T01:43:40;11.00;;;7.53;;
1086;SDS011;532;49.436;11.100;2022-07-23T01:46:09;13.98;;;7.38;;
1086;SDS011;532;49.436;11.100;2022-07-23T01:48:42;12.15;;;7.53;;
1086;SDS011;532;49.436;11.100;2022-07-23T01:51:25;12.07;;;7.22;;
1086;SDS011;532;49.436;11.100;2022-07-23T01:54:03;12.00;;;7.15;;
1086;SDS011;532;49.436;11.100;2022-07-23T01:56:33;11.57;;;7.03;;
1086;SDS011;532;49.436;11.100;2022-07-23T01:59:05;13.07;;;7.00;;
1086;SDS011;532;49.436;11.100;2022-07-23T02:01:33;11.18;;;7.28;;
1086;SDS011;532;49.436;11.100;2022-07-23T02:04:02;11.00;;;6.75;;
1086;SDS011;532;49.436;11.100;2022-07-23T02:06:31;10.40;;;6.73;;
1086;SDS011;532;49.436;11.100;2022-07-23T02:08:59;12.45;;;7.13;;
1086;SDS011;532;49.436;11.100;2022-07-23T02:11:29;10.88;;;6.68;;
1086;SDS011;532;49.436;11.100;2022-07-23T02:13:57;10.55;;;7.28;;
1086;SDS011;532;49.436;11.100;2022-07-23T02:16:25;10.52;;;7.03;;
1086;SDS011;532;49.436;11.100;2022-07-23T02:22:19;12.03;;;6.70;;
1086;SDS011;532;49.436;11.100;2022-07-23T02:27:45;10.35;;;6.75;;
1086;SDS011;532;49.436;11.100;2022-07-23T02:30:14;11.90;;;7.10;;
1086;SDS011;532;49.436;11.100;2022-07-23T02:32:42;11.07;;;6.97;;
1086;SDS011;532;49.436;11.100;2022-07-23T02:35:16;12.60;;;7.20;;
1086;SDS011;532;49.436;11.100;2022-07-23T02:37:45;9.90;;;7.13;;
1086;SDS011;532;49.436;11.100;2022-07-23T02:40:17;11.60;;;7.10;;
1086;SDS011;532;49.436;11.100;2022-07-23T02:42:46;12.20;;;7.00;;
1086;SDS011;532;49.436;11.100;2022-07-23T02:45:15;11.77;;;7.45;;
1086;SDS011;532;49.436;11.100;2022-07-23T02:47:43;12.02;;;7.50;;
1086;SDS011;532;49.436;11.100;2022-07-23T02:50:11;12.13;;;7.50;;
1086;SDS011;532;49.436;11.100;2022-07-23T02:52:39;11.15;;;6.93;;
1086;SDS011;532;49.436;11.100;2022-07-23T02:55:07;11.18;;;7.25;;
1086;SDS011;532;49.436;11.100;2022-07-23T02:57:36;11.67;;;7.23;;
1086;SDS011;532;49.436;11.100;2022-07-23T03:00:06;10.10;;;6.70;;
1086;SDS011;532;49.436;11.100;2022-07-23T03:02:35;11.32;;;6.70;;
1086;SDS011;532;49.436;11.100;2022-07-23T03:05:04;9.68;;;7.35;;
1086;SDS011;532;49.436;11.100;2022-07-23T03:07:34;10.63;;;7.30;;
1086;SDS011;532;49.436;11.100;2022-07-23T03:10:04;9.45;;;7.18;;
1086;SDS011;532;49.436;11.100;2022-07-23T03:12:32;12.48;;;8.10;;
1086;SDS011;532;49.436;11.100;2022-07-23T03:15:02;11.32;;;7.57;;
1086;SDS011;532;49.436;11.100;2022-07-23T03:17:32;11.60;;;7.43;;
1086;SDS011;532;49.436;11.100;2022-07-23T03:20:02;10.77;;;7.07;;
1086;SDS011;532;49.436;11.100;2022-07-23T03:22:31;11.60;;;7.10;;
1086;SDS011;532;49.436;11.100;2022-07-23T03:28:22;12.23;;;7.72;;
1086;SDS011;532;49.436;11.100;2022-07-23T03:30:51;10.70;;;7.63;;
1086;SDS011;532;49.436;11.100;2022-07-23T03:33:21;11.07;;;7.28;;
1086;SDS011;532;49.436;11.100;2022-07-23T03:35:52;13.95;;;8.13;;
1086;SDS011;532;49.436;11.100;2022-07-23T03:38:24;12.95;;;7.50;;
1086;SDS011;532;49.436;11.100;2022-07-23T03:40:53;13.00;;;7.80;;
1086;SDS011;532;49.436;11.100;2022-07-23T03:43:21;12.27;;;7.43;;
1086;SDS011;532;49.436;11.100;2022-07-23T03:45:51;11.23;;;7.50;;
1086;SDS011;532;49.436;11.100;2022-07-23T03:48:19;10.68;;;7.47;;
1086;SDS011;532;49.436;11.100;2022-07-23T03:50:50;12.63;;;7.63;;
1086;SDS011;532;49.436;11.100;2022-07-23T03:53:18;13.52;;;7.18;;
1086;SDS011;532;49.436;11.100;2022-07-23T03:55:47;12.23;;;7.90;;
1086;SDS011;532;49.436;11.100;2022-07-23T03:58:15;11.93;;;7.38;;
1086;SDS011;532;49.436;11.100;2022-07-23T04:00:43;11.45;;;7.82;;
1086;SDS011;532;49.436;11.100;2022-07-23T04:03:12;11.97;;;7.63;;
1086;SDS011;532;49.436;11.100;2022-07-23T04:05:41;11.10;;;6.85;;
1086;SDS011;532;49.436;11.100;2022-07-23T04:08:14;13.50;;;8.00;;
1086;SDS011;532;49.436;11.100;2022-07-23T04:10:49;11.40;;;7.30;;
1086;SDS011;532;49.436;11.100;2022-07-23T04:13:17;13.00;;;7.45;;
1086;SDS011;532;49.436;11.100;2022-07-23T04:15:46;10.32;;;7.20;;
1086;SDS011;532;49.436;11.100;2022-07-23T04:18:15;11.02;;;6.90;;
1086;SDS011;532;49.436;11.100;2022-07-23T04:20:53;11.53;;;7.30;;
1086;SDS011;532;49.436;11.100;2022-07-23T04:23:25;12.00;;;7.20;;
1086;SDS011;532;49.436;11.100;2022-07-23T04:25:53;11.02;;;7.03;;
1086;SDS011;532;49.436;11.100;2022-07-23T04:28:23;9.52;;;6.88;;
1086;SDS011;532;49.436;11.100;2022-07-23T04:30:51;10.70;;;7.05;;
1086;SDS011;532;49.436;11.100;2022-07-23T04:33:22;11.30;;;7.40;;
1086;SDS011;532;49.436;11.100;2022-07-23T04:35:54;10.50;;;7.20;;
1086;SDS011;532;49.436;11.100;2022-07-23T04:38:24;11.80;;;6.82;;
1086;SDS011;532;49.436;11.100;2022-07-23T04:40:57;9.95;;;7.00;;
1086;SDS011;532;49.436;11.100;2022-07-23T04:43:26;9.45;;;7.00;;
1086;SDS011;532;49.436;11.100;2022-07-23T04:45:54;10.73;;;6.70;;
1086;SDS011;532;49.436;11.100;2022-07-23T04:48:24;10.13;;;6.95;;
1086;SDS011;532;49.436;11.100;2022-07-23T04:51:06;11.57;;;6.57;;
1086;SDS011;532;49.436;11.100;2022-07-23T04:53:37;9.95;;;6.45;;
1086;SDS011;532;49.436;11.100;2022-07-23T04:56:06;10.85;;;6.22;;
1086;SDS011;532;49.436;11.100;2022-07-23T04:58:35;8.98;;;6.10;;
1086;SDS011;532;49.436;11.100;2022-07-23T05:01:06;10.23;;;6.35;;
1086;SDS011;532;49.436;11.100;2022-07-23T05:03:36;8.80;;;6.00;;
1086;SDS011;532;49.436;11.100;2022-07-23T05:06:07;10.13;;;6.07;;
1086;SDS011;532;49.436;11.100;2022-07-23T05:08:37;9.27;;;6.20;;
1086;SDS011;532;49.436;11.100;2022-07-23T05:11:05;8.95;;;5.78;;
1086;SDS011;532;49.436;11.100;2022-07-23T05:13:34;10.97;;;5.97;;
1086;SDS011;532;49.436;11.100;2022-07-23T05:16:06;8.82;;;5.38;;
1086;SDS011;532;49.436;11.100;2022-07-23T05:18:36;10.07;;;5.72;;
1086;SDS011;532;49.436;11.100;2022-07-23T05:21:04;11.45;;;5.72;;
1086;SDS011;532;49.436;11.100;2022-07-23T05:23:33;9.13;;;5.28;;
1086;SDS011;532;49.436;11.100;2022-07-23T05:26:06;8.43;;;4.83;;
1086;SDS011;532;49.436;11.100;2022-07-23T05:28:36;8.80;;;5.28;;
1086;SDS011;532;49.436;11.100;2022-07-23T05:31:05;8.50;;;5.10;;
1086;SDS011;532;49.436;11.100;2022-07-23T05:33:34;6.47;;;4.63;;
1086;SDS011;532;49.436;11.100;2022-07-23T05:36:07;7.37;;;4.77;;
1086;SDS011;532;49.436;11.100;2022-07-23T05:38:43;7.93;;;4.60;;
1086;SDS011;532;49.436;11.100;2022-07-23T05:41:13;7.47;;;4.78;;
1086;SDS011;532;49.436;11.100;2022-07-23T05:43:42;6.75;;;4.38;;
1086;SDS011;532;49.436;11.100;2022-07-23T05:46:13;7.50;;;4.70;;
1086;SDS011;532;49.436;11.100;2022-07-23T05:48:46;6.60;;;4.03;;
1086;SDS011;532;49.436;11.100;2022-07-23T05:51:42;7.60;;;4.17;;
1086;SDS011;532;49.436;11.100;2022-07-23T05:54:13;7.20;;;4.25;;
1086;SDS011;532;49.436;11.100;2022-07-23T05:56:43;6.82;;;4.15;;
1086;SDS011;532;49.436;11.100;2022-07-23T05:59:11;6.82;;;4.25;;
1086;SDS011;532;49.436;11.100;2022-07-23T06:01:41;6.72;;;4.00;;
1086;SDS011;532;49.436;11.100;2022-07-23T06:04:11;5.82;;;3.78;;
1086;SDS011;532;49.436;11.100;2022-07-23T06:06:50;6.78;;;4.25;;
1086;SDS011;532;49.436;11.100;2022-07-23T06:09:18;7.43;;;3.60;;
1086;SDS011;532;49.436;11.100;2022-07-23T06:11:48;8.55;;;5.07;;
1086;SDS011;532;49.436;11.100;2022-07-23T06:14:16;7.05;;;4.25;;
1086;SDS011;532;49.436;11.100;2022-07-23T06:16:50;6.50;;;4.00;;
1086;SDS011;532;49.436;11.100;2022-07-23T06:19:20;6.70;;;4.00;;
1086;SDS011;532;49.436;11.100;2022-07-23T06:21:51;6.05;;;3.55;;
1086;SDS011;532;49.436;11.100;2022-07-23T06:24:20;5.50;;;3.60;;
1086;SDS011;532;49.436;11.100;2022-07-23T06:26:50;6.30;;;3.70;;
1086;SDS011;532;49.436;11.100;2022-07-23T06:29:19;5.63;;;3.60;;
1086;SDS011;532;49.436;11.100;2022-07-23T06:31:47;7.20;;;3.83;;
1086;SDS011;532;49.436;11.100;2022-07-23T06:34:16;6.87;;;3.77;;
1086;SDS011;532;49.436;11.100;2022-07-23T06:36:44;7.45;;;3.85;;
1086;SDS011;532;49.436;11.100;2022-07-23T06:39:37;6.47;;;3.73;;
1086;SDS011;532;49.436;11.100;2022-07-23T06:42:08;9.45;;;4.40;;
1086;SDS011;532;49.436;11.100;2022-07-23T06:44:42;6.68;;;3.75;;
1086;SDS011;532;49.436;11.100;2022-07-23T06:47:19;6.60;;;3.63;;
1086;SDS011;532;49.436;11.100;2022-07-23T06:49:48;6.43;;;4.13;;
1086;SDS011;532;49.436;11.100;2022-07-23T06:52:16;5.45;;;3.75;;
1086;SDS011;532;49.436;11.100;2022-07-23T06:54:45;5.80;;;3.78;;
1086;SDS011;532;49.436;11.100;2022-07-23T06:57:15;6.22;;;3.80;;
1086;SDS011;532;49.436;11.100;2022-07-23T06:59:43;8.38;;;3.88;;
1086;SDS011;532;49.436;11.100;2022-07-23T07:02:13;6.88;;;4.00;;
1086;SDS011;532;49.436;11.100;2022-07-23T07:04:42;8.02;;;4.15;;
1086;SDS011;532;49.436;11.100;2022-07-23T07:07:11;6.00;;;4.15;;
1086;SDS011;532;49.436;11.100;2022-07-23T07:09:39;7.63;;;4.40;;
1086;SDS011;532;49.436;11.100;2022-07-23T07:12:08;6.35;;;4.32;;
1086;SDS011;532;49.436;11.100;2022-07-23T07:17:35;7.05;;;4.20;;
1086;SDS011;532;49.436;11.100;2022-07-23T07:20:04;7.07;;;4.60;;
1086;SDS011;532;49.436;11.100;2022-07-23T07:22:34;6.57;;;4.57;;
1086;SDS011;532;49.436;11.100;2022-07-23T07:28:37;8.20;;;4.55;;
1086;SDS011;532;49.436;11.100;2022-07-23T07:31:07;7.90;;;4.72;;
1086;SDS011;532;49.436;11.100;2022-07-23T07:33:36;6.22;;;4.53;;
1086;SDS011;532;49.436;11.100;2022-07-23T07:36:07;7.53;;;4.90;;
1086;SDS011;532;49.436;11.100;2022-07-23T07:38:40;9.65;;;5.00;;
1086;SDS011;532;49.436;11.100;2022-07-23T07:41:08;10.25;;;5.28;;
1086;SDS011;532;49.436;11.100;2022-07-23T07:43:37;6.93;;;4.63;;
1086;SDS011;532;49.436;11.100;2022-07-23T07:46:08;7.78;;;4.55;;
1086;SDS011;532;49.436;11.100;2022-07-23T07:48:37;7.35;;;4.80;;
1086;SDS011;532;49.436;11.100;2022-07-23T07:51:06;7.95;;;4.40;;
1086;SDS011;532;49.436;11.100;2022-07-23T07:53:35;10.10;;;4.70;;
1086;SDS011;532;49.436;11.100;2022-07-23T07:56:06;14.10;;;5.57;;
1086;SDS011;532;49.436;11.100;2022-07-23T07:58:38;9.55;;;5.65;;
1086;SDS011;532;49.436;11.100;2022-07-23T08:01:09;8.80;;;5.00;;
1086;SDS011;532;49.436;11.100;2022-07-23T08:03:37;8.88;;;5.30;;
1086;SDS011;532;49.436;11.100;2022-07-23T08:06:06;7.25;;;5.10;;
1086;SDS011;532;49.436;11.100;2022-07-23T08:08:34;8.00;;;5.00;;
1086;SDS011;532;49.436;11.100;2022-07-23T08:11:06;9.75;;;5.28;;
1086;SDS011;532;49.436;11.100;2022-07-23T08:13:35;8.82;;;4.93;;
1086;SDS011;532;49.436;11.100;2022-07-23T08:16:05;7.68;;;4.90;;
1086;SDS011;532;49.436;11.100;2022-07-23T08:18:38;9.37;;;5.37;;
1086;SDS011;532;49.436;11.100;2022-07-23T08:21:06;8.32;;;5.05;;
1086;SDS011;532;49.436;11.100;2022-07-23T08:23:38;8.43;;;5.00;;
1086;SDS011;532;49.436;11.100;2022-07-23T08:26:07;9.13;;;5.53;;
1086;SDS011;532;49.436;11.100;2022-07-23T08:28:36;8.15;;;5.40;;
1086;SDS011;532;49.436;11.100;2022-07-23T08:31:05;8.27;;;5.32;;
1086;SDS011;532;49.436;11.100;2022-07-23T08:33:35;8.63;;;5.30;;
1086;SDS011;532;49.436;11.100;2022-07-23T08:36:08;11.97;;;5.23;;
1086;SDS011;532;49.436;11.100;2022-07-23T08:38:36;9.30;;;5.55;;
1086;SDS011;532;49.436;11.100;2022-07-23T08:41:05;9.10;;;5.55;;
1086;SDS011;532;49.436;11.100;2022-07-23T08:43:36;11.15;;;5.05;;
1086;SDS011;532;49.436;11.100;2022-07-23T08:46:08;8.13;;;5.07;;
1086;SDS011;532;49.436;11.100;2022-07-23T08:48:38;11.02;;;5.35;;
1086;SDS011;532;49.436;11.100;2022-07-23T08:51:07;9.75;;;5.63;;
1086;SDS011;532;49.436;11.100;2022-07-23T08:53:37;7.45;;;5.30;;
1086;SDS011;532;49.436;11.100;2022-07-23T08:56:06;9.80;;;5.00;;
1086;SDS011;532;49.436;11.100;2022-07-23T08:58:36;7.77;;;4.67;;
1086;SDS011;532;49.436;11.100;2022-07-23T09:01:04;7.00;;;4.10;;
1086;SDS011;532;49.436;11.100;2022-07-23T09:03:34;8.73;;;4.50;;
1086;SDS011;532;49.436;11.100;2022-07-23T09:06:06;8.20;;;4.50;;
1086;SDS011;532;49.436;11.100;2022-07-23T09:08:38;8.43;;;4.20;;
1086;SDS011;532;49.436;11.100;2022-07-23T09:11:08;7.70;;;4.20;;
1086;SDS011;532;49.436;11.100;2022-07-23T09:13:38;7.88;;;4.50;;
1086;SDS011;532;49.436;11.100;2022-07-23T09:16:09;8.65;;;4.32;;
1086;SDS011;532;49.436;11.100;2022-07-23T09:18:44;7.70;;;4.47;;
1086;SDS011;532;49.436;11.100;2022-07-23T09:21:16;7.78;;;4.25;;
1086;SDS011;532;49.436;11.100;2022-07-23T09:23:47;9.43;;;4.15;;
1086;SDS011;532;49.436;11.100;2022-07-23T09:26:22;7.20;;;3.85;;
1086;SDS011;532;49.436;11.100;2022-07-23T09:28:53;6.85;;;3.75;;
1086;SDS011;532;49.436;11.100;2022-07-23T09:31:25;7.27;;;3.70;;
1086;SDS011;532;49.436;11.100;2022-07-23T09:34:01;5.43;;;3.80;;
1086;SDS011;532;49.436;11.100;2022-07-23T09:36:40;7.47;;;3.70;;
1086;SDS011;532;49.436;11.100;2022-07-23T09:39:09;6.60;;;3.77;;
1086;SDS011;532;49.436;11.100;2022-07-23T09:41:39;6.70;;;3.70;;
1086;SDS011;532;49.436;11.100;2022-07-23T09:44:11;5.73;;;3.30;;
1086;SDS011;532;49.436;11.100;2022-07-23T09:46:41;5.95;;;3.50;;
1086;SDS011;532;49.436;11.100;2022-07-23T09:49:15;6.60;;;3.77;;
1086;SDS011;532;49.436;11.100;2022-07-23T09:51:47;10.43;;;4.20;;
1086;SDS011;532;49.436;11.100;2022-07-23T09:54:25;6.88;;;4.13;;
1086;SDS011;532;49.436;11.100;2022-07-23T09:56:57;7.67;;;4.23;;
1086;SDS011;532;49.436;11.100;2022-07-23T09:59:27;6.47;;;3.70;;
1086;SDS011;532;49.436;11.100;2022-07-23T10:01:58;8.52;;;3.75;;
1086;SDS011;532;49.436;11.100;2022-07-23T10:04:32;7.70;;;3.93;;
1086;SDS011;532;49.436;11.100;2022-07-23T10:07:16;7.95;;;4.28;;
1086;SDS011;532;49.436;11.100;2022-07-23T10:10:04;9.00;;;4.23;;
1086;SDS011;532;49.436;11.100;2022-07-23T10:12:56;7.32;;;4.03;;
1086;SDS011;532;49.436;11.100;2022-07-23T10:15:50;8.50;;;4.45;;
1086;SDS011;532;49.436;11.100;2022-07-23T10:18:19;8.35;;;4.60;;
1086;SDS011;532;49.436;11.100;2022-07-23T10:20:48;8.05;;;4.43;;
1086;SDS011;532;49.436;11.100;2022-07-23T10:23:19;8.57;;;4.80;;
1086;SDS011;532;49.436;11.100;2022-07-23T10:25:53;8.38;;;4.57;;
1086;SDS011;532;49.436;11.100;2022-07-23T10:28:30;7.13;;;4.25;;
1086;SDS011;532;49.436;11.100;2022-07-23T10:31:10;8.50;;;4.68;;
1086;SDS011;532;49.436;11.100;2022-07-23T10:34:07;9.25;;;4.50;;
1086;SDS011;532;49.436;11.100;2022-07-23T10:36:42;6.15;;;4.25;;
1086;SDS011;532;49.436;11.100;2022-07-23T10:39:40;7.70;;;4.78;;
1086;SDS011;532;49.436;11.100;2022-07-23T10:42:09;8.80;;;4.87;;
1086;SDS011;532;49.436;11.100;2022-07-23T10:44:40;7.05;;;4.60;;
1086;SDS011;532;49.436;11.100;2022-07-23T10:47:10;7.05;;;4.38;;
1086;SDS011;532;49.436;11.100;2022-07-23T10:53:07;10.40;;;4.82;;
1086;SDS011;532;49.436;11.100;2022-07-23T10:55:44;8.00;;;4.90;;
1086;SDS011;532;49.436;11.100;2022-07-23T10:58:20;8.65;;;5.10;;
1086;SDS011;532;49.436;11.100;2022-07-23T11:00:49;8.27;;;5.10;;
1086;SDS011;532;49.436;11.100;2022-07-23T11:03:28;9.57;;;5.00;;
1086;SDS011;532;49.436;11.100;2022-07-23T11:06:05;7.82;;;4.93;;
1086;SDS011;532;49.436;11.100;2022-07-23T11:08:34;8.60;;;4.70;;
1086;SDS011;532;49.436;11.100;2022-07-23T11:11:10;8.48;;;5.05;;
1086;SDS011;532;49.436;11.100;2022-07-23T11:13:46;10.10;;;5.45;;
1086;SDS011;532;49.436;11.100;2022-07-23T11:16:23;9.15;;;5.38;;
1086;SDS011;532;49.436;11.100;2022-07-23T11:21:43;10.50;;;5.40;;
1086;SDS011;532;49.436;11.100;2022-07-23T11:24:21;8.13;;;5.00;;
1086;SDS011;532;49.436;11.100;2022-07-23T11:26:56;10.73;;;5.45;;
1086;SDS011;532;49.436;11.100;2022-07-23T11:29:41;8.57;;;5.28;;
1086;SDS011;532;49.436;11.100;2022-07-23T11:35:25;9.10;;;5.30;;
1086;SDS011;532;49.436;11.100;2022-07-23T11:37:54;8.10;;;4.30;;
1086;SDS011;532;49.436;11.100;2022-07-23T11:40:31;7.70;;;4.88;;
1086;SDS011;532;49.436;11.100;2022-07-23T11:43:05;9.13;;;5.80;;
1086;SDS011;532;49.436;11.100;2022-07-23T11:45:36;11.93;;;7.05;;
1086;SDS011;532;49.436;11.100;2022-07-23T11:48:06;8.55;;;4.95;;
1086;SDS011;532;49.436;11.100;2022-07-23T11:50:36;8.98;;;5.45;;
1086;SDS011;532;49.436;11.100;2022-07-23T11:53:04;9.63;;;5.90;;
1086;SDS011;532;49.436;11.100;2022-07-23T11:55:32;9.43;;;4.90;;
1086;SDS011;532;49.436;11.100;2022-07-23T11:58:02;8.95;;;5.20;;
1086;SDS011;532;49.436;11.100;2022-07-23T12:00:31;7.47;;;4.68;;
1086;SDS011;532;49.436;11.100;2022-07-23T12:03:06;8.13;;;4.97;;
1086;SDS011;532;49.436;11.100;2022-07-23T12:05:37;8.60;;;5.10;;
1086;SDS011;532;49.436;11.100;2022-07-23T12:08:08;9.33;;;5.00;;
1086;SDS011;532;49.436;11.100;2022-07-23T12:10:38;7.88;;;5.18;;
1086;SDS011;532;49.436;11.100;2022-07-23T12:13:10;9.68;;;6.32;;
1086;SDS011;532;49.436;11.100;2022-07-23T12:15:40;8.55;;;5.47;;
1086;SDS011;532;49.436;11.100;2022-07-23T12:18:10;8.32;;;5.15;;
1086;SDS011;532;49.436;11.100;2022-07-23T12:20:49;10.98;;;6.47;;
1086;SDS011;532;49.436;11.100;2022-07-23T12:23:20;10.00;;;5.38;;
1086;SDS011;532;49.436;11.100;2022-07-23T12:25:50;10.98;;;6.60;;
1086;SDS011;532;49.436;11.100;2022-07-23T12:28:21;9.50;;;6.03;;
1086;SDS011;532;49.436;11.100;2022-07-23T12:30:50;8.13;;;5.23;;
1086;SDS011;532;49.436;11.100;2022-07-23T12:33:24;8.38;;;5.60;;
1086;SDS011;532;49.436;11.100;2022-07-23T12:35:55;8.80;;;5.10;;
1086;SDS011;532;49.436;11.100;2022-07-23T12:38:26;8.40;;;5.30;;
1086;SDS011;532;49.436;11.100;2022-07-23T12:40:56;9.88;;;5.20;;
1086;SDS011;532;49.436;11.100;2022-07-23T12:43:28;9.07;;;5.22;;
1086;SDS011;532;49.436;11.100;2022-07-23T12:46:02;8.77;;;5.90;;
1086;SDS011;532;49.436;11.100;2022-07-23T12:48:36;12.38;;;8.05;;
1086;SDS011;532;49.436;11.100;2022-07-23T12:51:09;11.10;;;7.37;;
1086;SDS011;532;49.436;11.100;2022-07-23T12:53:44;7.70;;;4.80;;
1086;SDS011;532;49.436;11.100;2022-07-23T12:56:16;10.35;;;7.32;;
1086;SDS011;532;49.436;11.100;2022-07-23T12:58:48;8.88;;;5.93;;
1086;SDS011;532;49.436;11.100;2022-07-23T13:01:25;9.10;;;5.45;;
1086;SDS011;532;49.436;11.100;2022-07-23T13:03:56;8.20;;;5.00;;
1086;SDS011;532;49.436;11.100;2022-07-23T13:06:26;10.67;;;6.80;;
1086;SDS011;532;49.436;11.100;2022-07-23T13:08:55;8.77;;;5.20;;
1086;SDS011;532;49.436;11.100;2022-07-23T13:11:23;7.30;;;5.00;;
1086;SDS011;532;49.436;11.100;2022-07-23T13:13:58;8.30;;;4.93;;
1086;SDS011;532;49.436;11.100;2022-07-23T13:16:28;9.00;;;5.30;;
1086;SDS011;532;49.436;11.100;2022-07-23T13:18:57;10.07;;;6.72;;
1086;SDS011;532;49.436;11.100;2022-07-23T13:21:26;8.85;;;5.35;;
1086;SDS011;532;49.436;11.100;2022-07-23T13:23:55;7.45;;;5.38;;
1086;SDS011;532;49.436;11.100;2022-07-23T13:26:26;8.63;;;5.25;;
1086;SDS011;532;49.436;11.100;2022-07-23T13:28:54;8.32;;;5.35;;
1086;SDS011;532;49.436;11.100;2022-07-23T13:31:25;8.57;;;4.93;;
1086;SDS011;532;49.436;11.100;2022-07-23T13:33:53;9.65;;;4.95;;
1086;SDS011;532;49.436;11.100;2022-07-23T13:36:22;11.60;;;6.13;;
1086;SDS011;532;49.436;11.100;2022-07-23T13:38:50;8.93;;;5.13;;
1086;SDS011;532;49.436;11.100;2022-07-23T13:41:18;9.77;;;6.25;;
1086;SDS011;532;49.436;11.100;2022-07-23T13:44:10;8.00;;;6.00;;
1086;SDS011;532;49.436;11.100;2022-07-23T13:46:40;7.95;;;5.40;;
1086;SDS011;532;49.436;11.100;2022-07-23T13:49:09;8.25;;;4.80;;
1086;SDS011;532;49.436;11.100;2022-07-23T13:51:39;8.60;;;5.82;;
1086;SDS011;532;49.436;11.100;2022-07-23T13:54:08;8.52;;;5.47;;
1086;SDS011;532;49.436;11.100;2022-07-23T13:56:36;9.38;;;6.10;;
1086;SDS011;532;49.436;11.100;2022-07-23T13:59:05;8.82;;;5.97;;
1086;SDS011;532;49.436;11.100;2022-07-23T14:01:33;10.30;;;7.07;;
1086;SDS011;532;49.436;11.100;2022-07-23T14:04:22;9.13;;;5.93;;
1086;SDS011;532;49.436;11.100;2022-07-23T14:06:51;7.97;;;5.50;;
1086;SDS011;532;49.436;11.100;2022-07-23T14:09:20;8.00;;;5.33;;
1086;SDS011;532;49.436;11.100;2022-07-23T14:11:51;7.70;;;5.00;;
1086;SDS011;532;49.436;11.100;2022-07-23T14:14:44;8.50;;;5.60;;
1086;SDS011;532;49.436;11.100;2022-07-23T14:17:36;8.43;;;5.10;;
1086;SDS011;532;49.436;11.100;2022-07-23T14:20:07;8.30;;;5.22;;
1086;SDS011;532;49.436;11.100;2022-07-23T14:22:36;8.53;;;5.80;;
1086;SDS011;532;49.436;11.100;2022-07-23T14:25:05;9.32;;;5.25;;
1086;SDS011;532;49.436;11.100;2022-07-23T14:28:03;8.00;;;5.40;;
1086;SDS011;532;49.436;11.100;2022-07-23T14:33:31;16.87;;;9.10;;
1086;SDS011;532;49.436;11.100;2022-07-23T14:36:02;11.40;;;7.13;;
1086;SDS011;532;49.436;11.100;2022-07-23T14:38:39;10.35;;;6.22;;
1086;SDS011;532;49.436;11.100;2022-07-23T14:41:08;7.80;;;5.35;;
1086;SDS011;532;49.436;11.100;2022-07-23T14:43:38;8.93;;;4.95;;
1086;SDS011;532;49.436;11.100;2022-07-23T14:46:08;8.15;;;5.40;;
1086;SDS011;532;49.436;11.100;2022-07-23T14:48:37;7.20;;;4.90;;
1086;SDS011;532;49.436;11.100;2022-07-23T14:51:07;9.77;;;5.38;;
1086;SDS011;532;49.436;11.100;2022-07-23T14:53:37;7.82;;;5.18;;
1086;SDS011;532;49.436;11.100;2022-07-23T14:56:06;8.88;;;5.32;;
1086;SDS011;532;49.436;11.100;2022-07-23T14:58:34;7.93;;;5.40;;
1086;SDS011;532;49.436;11.100;2022-07-23T15:01:06;7.97;;;5.25;;
1086;SDS011;532;49.436;11.100;2022-07-23T15:03:34;7.90;;;4.65;;
1086;SDS011;532;49.436;11.100;2022-07-23T15:06:09;6.97;;;4.93;;
1086;SDS011;532;49.436;11.100;2022-07-23T15:08:38;7.57;;;4.90;;
1086;SDS011;532;49.436;11.100;2022-07-23T15:11:08;6.90;;;4.90;;
1086;SDS011;532;49.436;11.100;2022-07-23T15:13:37;6.90;;;5.03;;
1086;SDS011;532;49.436;11.100;2022-07-23T15:16:08;8.07;;;4.70;;
1086;SDS011;532;49.436;11.100;2022-07-23T15:18:37;8.33;;;4.93;;
1086;SDS011;532;49.436;11.100;2022-07-23T15:21:06;8.30;;;4.97;;
1086;SDS011;532;49.436;11.100;2022-07-23T15:23:36;7.03;;;5.10;;
1086;SDS011;532;49.436;11.100;2022-07-23T15:26:07;8.20;;;4.93;;
1086;SDS011;532;49.436;11.100;2022-07-23T15:28:38;8.40;;;5.10;;
1086;SDS011;532;49.436;11.100;2022-07-23T15:31:07;9.93;;;4.88;;
1086;SDS011;532;49.436;11.100;2022-07-23T15:33:36;6.82;;;4.75;;
1086;SDS011;532;49.436;11.100;2022-07-23T15:36:08;6.55;;;4.47;;
1086;SDS011;532;49.436;11.100;2022-07-23T15:38:39;7.50;;;4.70;;
1086;SDS011;532;49.436;11.100;2022-07-23T15:41:10;6.15;;;4.40;;
1086;SDS011;532;49.436;11.100;2022-07-23T15:43:38;7.70;;;4.53;;
1086;SDS011;532;49.436;11.100;2022-07-23T15:46:07;6.53;;;4.43;;
1086;SDS011;532;49.436;11.100;2022-07-23T15:48:36;7.10;;;4.88;;
1086;SDS011;532;49.436;11.100;2022-07-23T15:51:06;8.20;;;4.55;;
1086;SDS011;532;49.436;11.100;2022-07-23T15:53:35;7.70;;;4.30;;
1086;SDS011;532;49.436;11.100;2022-07-23T15:56:08;6.70;;;4.50;;
1086;SDS011;532;49.436;11.100;2022-07-23T15:58:42;9.25;;;4.95;;
1086;SDS011;532;49.436;11.100;2022-07-23T16:01:12;7.10;;;4.53;;
1086;SDS011;532;49.436;11.100;2022-07-23T16:03:44;7.93;;;4.70;;
1086;SDS011;532;49.436;11.100;2022-07-23T16:06:15;7.47;;;4.97;;
1086;SDS011;532;49.436;11.100;2022-07-23T16:08:52;6.90;;;4.72;;